sensor_id;sensor_type;location;lat;lon;timestamp;P1;durP1;ratioP1;P2;durP2;ratioP2
15480;SDS011;7842;50.904;6.670;2022-09-12T00:02:19;15.93;;;14.32;;
15480;SDS011;7842;50.904;6.670;2022-09-12T00:04:45;17.50;;;15.57;;
15480;SDS011;7842;50.904;6.670;2022-09-12T00:07:11;18.60;;;16.27;;
15480;SDS011;7842;50.904;6.670;2022-09-12T00:09:36;17.83;;;15.93;;
15480;SDS011;7842;50.904;6.670;2022-09-12T00:12:02;18.20;;;16.30;;
15480;SDS011;7842;50.904;6.670;2022-09-12T00:14:28;17.70;;;15.85;;
15480;SDS011;7842;50.904;6.670;2022-09-12T00:16:56;18.13;;;16.23;;
15480;SDS011;7842;50.904;6.670;2022-09-12T00:19:23;17.60;;;15.80;;
15480;SDS011;7842;50.904;6.670;2022-09-12T00:21:49;19.42;;;16.63;;
15480;SDS011;7842;50.904;6.670;2022-09-12T00:24:15;18.87;;;16.43;;
15480;SDS011;7842;50.904;6.670;2022-09-12T00:26:40;17.65;;;15.85;;
15480;SDS011;7842;50.904;6.670;2022-09-12T00:29:06;18.67;;;16.77;;
15480;SDS011;7842;50.904;6.670;2022-09-12T00:31:32;18.77;;;16.77;;
15480;SDS011;7842;50.904;6.670;2022-09-12T00:33:59;17.80;;;15.90;;
15480;SDS011;7842;50.904;6.670;2022-09-12T00:36:25;18.73;;;16.73;;
15480;SDS011;7842;50.904;6.670;2022-09-12T00:38:52;19.27;;;16.45;;
15480;SDS011;7842;50.904;6.670;2022-09-12T00:41:27;19.23;;;17.13;;
15480;SDS011;7842;50.904;6.670;2022-09-12T00:43:54;19.02;;;17.05;;
15480;SDS011;7842;50.904;6.670;2022-09-12T00:51:57;19.15;;;17.25;;
15480;SDS011;7842;50.904;6.670;2022-09-12T00:54:42;19.58;;;17.58;;
15480;SDS011;7842;50.904;6.670;2022-09-12T00:57:20;19.70;;;17.20;;
15480;SDS011;7842;50.904;6.670;2022-09-12T00:59:53;19.48;;;17.45;;
15480;SDS011;7842;50.904;6.670;2022-09-12T01:02:25;19.75;;;17.27;;
15480;SDS011;7842;50.904;6.670;2022-09-12T01:04:51;18.50;;;16.50;;
15480;SDS011;7842;50.904;6.670;2022-09-12T01:07:17;19.10;;;17.10;;
15480;SDS011;7842;50.904;6.670;2022-09-12T01:09:43;18.58;;;16.63;;
15480;SDS011;7842;50.904;6.670;2022-09-12T01:12:09;18.02;;;16.13;;
15480;SDS011;7842;50.904;6.670;2022-09-12T01:14:37;17.85;;;16.00;;
15480;SDS011;7842;50.904;6.670;2022-09-12T01:17:03;18.17;;;16.20;;
15480;SDS011;7842;50.904;6.670;2022-09-12T01:22:16;18.85;;;16.85;;
15480;SDS011;7842;50.904;6.670;2022-09-12T01:33:27;18.08;;;16.17;;
15480;SDS011;7842;50.904;6.670;2022-09-12T01:38:47;19.00;;;17.00;;
15480;SDS011;7842;50.904;6.670;2022-09-12T01:41:23;20.05;;;17.98;;
15480;SDS011;7842;50.904;6.670;2022-09-12T01:49:16;22.10;;;19.23;;
15480;SDS011;7842;50.904;6.670;2022-09-12T01:54:31;21.05;;;18.63;;
15480;SDS011;7842;50.904;6.670;2022-09-12T01:57:15;20.55;;;18.23;;
15480;SDS011;7842;50.904;6.670;2022-09-12T01:59:50;22.42;;;19.55;;
15480;SDS011;7842;50.904;6.670;2022-09-12T02:02:38;21.92;;;18.60;;
15480;SDS011;7842;50.904;6.670;2022-09-12T02:08:18;22.92;;;19.63;;
15480;SDS011;7842;50.904;6.670;2022-09-12T02:10:52;22.80;;;19.98;;
15480;SDS011;7842;50.904;6.670;2022-09-12T02:16:22;21.85;;;19.48;;
15480;SDS011;7842;50.904;6.670;2022-09-12T02:18:58;22.15;;;19.70;;
15480;SDS011;7842;50.904;6.670;2022-09-12T02:21:25;24.33;;;19.80;;
15480;SDS011;7842;50.904;6.670;2022-09-12T02:23:55;23.23;;;19.73;;
15480;SDS011;7842;50.904;6.670;2022-09-12T02:26:29;22.67;;;20.00;;
15480;SDS011;7842;50.904;6.670;2022-09-12T02:28:55;22.05;;;18.77;;
15480;SDS011;7842;50.904;6.670;2022-09-12T02:31:23;23.23;;;20.08;;
15480;SDS011;7842;50.904;6.670;2022-09-12T02:33:55;23.87;;;19.73;;
15480;SDS011;7842;50.904;6.670;2022-09-12T02:38:52;23.43;;;20.60;;
15480;SDS011;7842;50.904;6.670;2022-09-12T02:41:19;23.70;;;20.27;;
15480;SDS011;7842;50.904;6.670;2022-09-12T02:43:46;24.50;;;20.73;;
15480;SDS011;7842;50.904;6.670;2022-09-12T02:46:28;23.73;;;20.73;;
15480;SDS011;7842;50.904;6.670;2022-09-12T02:48:56;24.27;;;20.63;;
15480;SDS011;7842;50.904;6.670;2022-09-12T02:51:22;24.05;;;20.80;;
15480;SDS011;7842;50.904;6.670;2022-09-12T02:53:48;23.17;;;20.67;;
15480;SDS011;7842;50.904;6.670;2022-09-12T02:56:20;25.42;;;21.33;;
15480;SDS011;7842;50.904;6.670;2022-09-12T02:58:48;26.50;;;21.35;;
15480;SDS011;7842;50.904;6.670;2022-09-12T03:01:28;26.90;;;21.33;;
15480;SDS011;7842;50.904;6.670;2022-09-12T03:06:46;25.70;;;21.27;;
15480;SDS011;7842;50.904;6.670;2022-09-12T03:09:21;26.07;;;21.67;;
15480;SDS011;7842;50.904;6.670;2022-09-12T03:17:28;26.80;;;22.45;;
15480;SDS011;7842;50.904;6.670;2022-09-12T03:20:10;28.17;;;22.73;;
15480;SDS011;7842;50.904;6.670;2022-09-12T03:22:52;27.98;;;23.77;;
15480;SDS011;7842;50.904;6.670;2022-09-12T03:25:21;29.42;;;24.55;;
15480;SDS011;7842;50.904;6.670;2022-09-12T03:27:52;30.17;;;24.40;;
15480;SDS011;7842;50.904;6.670;2022-09-12T03:30:18;30.73;;;25.15;;
15480;SDS011;7842;50.904;6.670;2022-09-12T03:32:46;31.87;;;25.67;;
15480;SDS011;7842;50.904;6.670;2022-09-12T03:35:12;30.75;;;24.50;;
15480;SDS011;7842;50.904;6.670;2022-09-12T03:37:38;27.83;;;23.33;;
15480;SDS011;7842;50.904;6.670;2022-09-12T03:40:05;29.85;;;24.33;;
15480;SDS011;7842;50.904;6.670;2022-09-12T03:42:31;34.10;;;25.90;;
15480;SDS011;7842;50.904;6.670;2022-09-12T03:44:57;29.73;;;25.25;;
15480;SDS011;7842;50.904;6.670;2022-09-12T03:47:23;33.40;;;25.95;;
15480;SDS011;7842;50.904;6.670;2022-09-12T03:49:49;32.03;;;26.20;;
15480;SDS011;7842;50.904;6.670;2022-09-12T03:52:16;33.78;;;26.90;;
15480;SDS011;7842;50.904;6.670;2022-09-12T03:54:42;33.78;;;27.02;;
15480;SDS011;7842;50.904;6.670;2022-09-12T03:57:09;33.47;;;26.65;;
15480;SDS011;7842;50.904;6.670;2022-09-12T03:59:35;33.05;;;26.58;;
15480;SDS011;7842;50.904;6.670;2022-09-12T04:02:01;33.67;;;26.92;;
15480;SDS011;7842;50.904;6.670;2022-09-12T04:04:28;33.42;;;26.30;;
15480;SDS011;7842;50.904;6.670;2022-09-12T04:06:54;35.63;;;27.57;;
15480;SDS011;7842;50.904;6.670;2022-09-12T04:09:20;35.63;;;27.73;;
15480;SDS011;7842;50.904;6.670;2022-09-12T04:11:46;37.63;;;26.85;;
15480;SDS011;7842;50.904;6.670;2022-09-12T04:14:12;34.58;;;26.27;;
15480;SDS011;7842;50.904;6.670;2022-09-12T04:16:38;34.83;;;26.83;;
15480;SDS011;7842;50.904;6.670;2022-09-12T04:19:04;36.42;;;27.55;;
15480;SDS011;7842;50.904;6.670;2022-09-12T04:21:30;36.10;;;27.42;;
15480;SDS011;7842;50.904;6.670;2022-09-12T04:23:56;35.33;;;27.63;;
15480;SDS011;7842;50.904;6.670;2022-09-12T04:26:22;37.88;;;27.67;;
15480;SDS011;7842;50.904;6.670;2022-09-12T04:28:51;38.17;;;27.93;;
15480;SDS011;7842;50.904;6.670;2022-09-12T04:31:18;35.88;;;26.30;;
15480;SDS011;7842;50.904;6.670;2022-09-12T04:33:46;35.00;;;26.33;;
15480;SDS011;7842;50.904;6.670;2022-09-12T04:36:14;35.03;;;26.40;;
15480;SDS011;7842;50.904;6.670;2022-09-12T04:38:41;35.35;;;26.23;;
15480;SDS011;7842;50.904;6.670;2022-09-12T04:41:13;35.20;;;26.77;;
15480;SDS011;7842;50.904;6.670;2022-09-12T04:43:40;37.33;;;26.80;;
15480;SDS011;7842;50.904;6.670;2022-09-12T04:46:07;39.45;;;28.05;;
15480;SDS011;7842;50.904;6.670;2022-09-12T04:48:33;35.67;;;26.48;;
15480;SDS011;7842;50.904;6.670;2022-09-12T04:51:13;35.15;;;25.70;;
15480;SDS011;7842;50.904;6.670;2022-09-12T04:53:40;33.63;;;25.02;;
15480;SDS011;7842;50.904;6.670;2022-09-12T04:56:06;31.85;;;24.80;;
15480;SDS011;7842;50.904;6.670;2022-09-12T04:58:33;32.00;;;24.90;;
15480;SDS011;7842;50.904;6.670;2022-09-12T05:01:03;34.22;;;26.15;;
15480;SDS011;7842;50.904;6.670;2022-09-12T05:03:29;33.78;;;25.23;;
15480;SDS011;7842;50.904;6.670;2022-09-12T05:05:55;35.28;;;25.83;;
15480;SDS011;7842;50.904;6.670;2022-09-12T05:08:21;33.97;;;25.80;;
15480;SDS011;7842;50.904;6.670;2022-09-12T05:10:47;34.67;;;25.90;;
15480;SDS011;7842;50.904;6.670;2022-09-12T05:13:13;32.73;;;25.47;;
15480;SDS011;7842;50.904;6.670;2022-09-12T05:15:39;35.22;;;25.58;;
15480;SDS011;7842;50.904;6.670;2022-09-12T05:18:05;33.65;;;25.02;;
15480;SDS011;7842;50.904;6.670;2022-09-12T05:20:39;32.42;;;24.67;;
15480;SDS011;7842;50.904;6.670;2022-09-12T05:23:14;31.53;;;24.23;;
15480;SDS011;7842;50.904;6.670;2022-09-12T05:25:46;32.07;;;24.40;;
15480;SDS011;7842;50.904;6.670;2022-09-12T05:28:18;33.60;;;24.60;;
15480;SDS011;7842;50.904;6.670;2022-09-12T05:30:45;32.03;;;23.98;;
15480;SDS011;7842;50.904;6.670;2022-09-12T05:33:11;29.05;;;22.95;;
15480;SDS011;7842;50.904;6.670;2022-09-12T05:35:37;33.00;;;24.33;;
15480;SDS011;7842;50.904;6.670;2022-09-12T05:38:04;32.58;;;24.27;;
15480;SDS011;7842;50.904;6.670;2022-09-12T05:40:30;30.30;;;23.92;;
15480;SDS011;7842;50.904;6.670;2022-09-12T05:42:57;30.67;;;23.80;;
15480;SDS011;7842;50.904;6.670;2022-09-12T05:45:22;30.03;;;23.00;;
15480;SDS011;7842;50.904;6.670;2022-09-12T05:47:48;28.50;;;22.63;;
15480;SDS011;7842;50.904;6.670;2022-09-12T05:50:14;30.58;;;23.20;;
15480;SDS011;7842;50.904;6.670;2022-09-12T05:52:40;31.25;;;22.85;;
15480;SDS011;7842;50.904;6.670;2022-09-12T05:55:06;28.70;;;22.27;;
15480;SDS011;7842;50.904;6.670;2022-09-12T05:57:32;29.63;;;22.70;;
15480;SDS011;7842;50.904;6.670;2022-09-12T05:59:57;29.33;;;22.35;;
15480;SDS011;7842;50.904;6.670;2022-09-12T06:02:23;27.83;;;21.70;;
15480;SDS011;7842;50.904;6.670;2022-09-12T06:04:49;27.52;;;21.73;;
15480;SDS011;7842;50.904;6.670;2022-09-12T06:07:15;28.67;;;23.00;;
15480;SDS011;7842;50.904;6.670;2022-09-12T06:09:40;29.47;;;22.47;;
15480;SDS011;7842;50.904;6.670;2022-09-12T06:12:06;31.33;;;23.63;;
15480;SDS011;7842;50.904;6.670;2022-09-12T06:14:32;29.85;;;23.10;;
15480;SDS011;7842;50.904;6.670;2022-09-12T06:16:58;30.05;;;22.77;;
15480;SDS011;7842;50.904;6.670;2022-09-12T06:19:24;29.53;;;22.77;;
15480;SDS011;7842;50.904;6.670;2022-09-12T06:21:51;31.83;;;23.58;;
15480;SDS011;7842;50.904;6.670;2022-09-12T06:24:18;32.42;;;23.90;;
15480;SDS011;7842;50.904;6.670;2022-09-12T06:26:44;31.10;;;23.63;;
15480;SDS011;7842;50.904;6.670;2022-09-12T06:29:11;31.70;;;23.20;;
15480;SDS011;7842;50.904;6.670;2022-09-12T06:31:38;32.53;;;24.52;;
15480;SDS011;7842;50.904;6.670;2022-09-12T06:34:09;29.23;;;22.90;;
15480;SDS011;7842;50.904;6.670;2022-09-12T06:36:38;30.90;;;22.97;;
15480;SDS011;7842;50.904;6.670;2022-09-12T06:39:10;30.48;;;23.05;;
15480;SDS011;7842;50.904;6.670;2022-09-12T06:41:40;30.92;;;23.83;;
15480;SDS011;7842;50.904;6.670;2022-09-12T06:44:06;30.35;;;23.08;;
15480;SDS011;7842;50.904;6.670;2022-09-12T06:46:32;27.90;;;22.50;;
15480;SDS011;7842;50.904;6.670;2022-09-12T06:48:58;30.70;;;22.55;;
15480;SDS011;7842;50.904;6.670;2022-09-12T06:51:25;29.98;;;23.02;;
15480;SDS011;7842;50.904;6.670;2022-09-12T06:53:53;28.98;;;22.33;;
15480;SDS011;7842;50.904;6.670;2022-09-12T06:56:20;28.75;;;22.15;;
15480;SDS011;7842;50.904;6.670;2022-09-12T06:58:48;27.40;;;21.83;;
15480;SDS011;7842;50.904;6.670;2022-09-12T07:01:16;29.10;;;22.13;;
15480;SDS011;7842;50.904;6.670;2022-09-12T07:03:47;29.10;;;21.65;;
15480;SDS011;7842;50.904;6.670;2022-09-12T07:06:15;28.10;;;21.40;;
15480;SDS011;7842;50.904;6.670;2022-09-12T07:08:43;26.67;;;20.52;;
15480;SDS011;7842;50.904;6.670;2022-09-12T07:11:13;27.38;;;20.65;;
15480;SDS011;7842;50.904;6.670;2022-09-12T07:13:42;27.25;;;21.33;;
15480;SDS011;7842;50.904;6.670;2022-09-12T07:16:09;27.35;;;20.27;;
15480;SDS011;7842;50.904;6.670;2022-09-12T07:18:35;25.80;;;20.40;;
15480;SDS011;7842;50.904;6.670;2022-09-12T07:21:03;26.52;;;20.77;;
15480;SDS011;7842;50.904;6.670;2022-09-12T07:23:31;25.75;;;20.33;;
15480;SDS011;7842;50.904;6.670;2022-09-12T07:25:57;25.35;;;19.75;;
15480;SDS011;7842;50.904;6.670;2022-09-12T07:28:24;24.98;;;19.80;;
15480;SDS011;7842;50.904;6.670;2022-09-12T07:30:51;24.73;;;19.02;;
15480;SDS011;7842;50.904;6.670;2022-09-12T07:33:20;23.80;;;19.33;;
15480;SDS011;7842;50.904;6.670;2022-09-12T07:35:51;24.48;;;19.35;;
15480;SDS011;7842;50.904;6.670;2022-09-12T07:38:18;23.80;;;18.58;;
15480;SDS011;7842;50.904;6.670;2022-09-12T07:40:46;23.88;;;19.08;;
15480;SDS011;7842;50.904;6.670;2022-09-12T07:43:12;23.47;;;18.77;;
15480;SDS011;7842;50.904;6.670;2022-09-12T07:45:37;23.48;;;18.52;;
15480;SDS011;7842;50.904;6.670;2022-09-12T07:48:06;24.63;;;18.53;;
15480;SDS011;7842;50.904;6.670;2022-09-12T07:50:32;25.77;;;18.75;;
15480;SDS011;7842;50.904;6.670;2022-09-12T07:52:58;23.52;;;18.80;;
15480;SDS011;7842;50.904;6.670;2022-09-12T07:55:24;22.45;;;18.05;;
15480;SDS011;7842;50.904;6.670;2022-09-12T07:57:52;19.75;;;16.88;;
15480;SDS011;7842;50.904;6.670;2022-09-12T08:00:18;21.30;;;16.27;;
15480;SDS011;7842;50.904;6.670;2022-09-12T08:02:44;20.65;;;16.00;;
15480;SDS011;7842;50.904;6.670;2022-09-12T08:05:09;20.20;;;15.77;;
15480;SDS011;7842;50.904;6.670;2022-09-12T08:07:35;19.38;;;15.55;;
15480;SDS011;7842;50.904;6.670;2022-09-12T08:10:01;20.93;;;15.90;;
15480;SDS011;7842;50.904;6.670;2022-09-12T08:12:27;19.38;;;15.35;;
15480;SDS011;7842;50.904;6.670;2022-09-12T08:14:53;18.48;;;15.82;;
15480;SDS011;7842;50.904;6.670;2022-09-12T08:17:19;21.33;;;16.23;;
15480;SDS011;7842;50.904;6.670;2022-09-12T08:19:45;19.07;;;15.33;;
15480;SDS011;7842;50.904;6.670;2022-09-12T08:22:11;21.10;;;16.13;;
15480;SDS011;7842;50.904;6.670;2022-09-12T08:24:37;20.25;;;15.50;;
15480;SDS011;7842;50.904;6.670;2022-09-12T08:27:06;18.80;;;15.07;;
15480;SDS011;7842;50.904;6.670;2022-09-12T08:29:32;19.23;;;15.70;;
15480;SDS011;7842;50.904;6.670;2022-09-12T08:31:57;18.20;;;14.52;;
15480;SDS011;7842;50.904;6.670;2022-09-12T08:34:23;18.07;;;15.03;;
15480;SDS011;7842;50.904;6.670;2022-09-12T08:36:50;17.73;;;14.20;;
15480;SDS011;7842;50.904;6.670;2022-09-12T08:39:18;17.67;;;14.27;;
15480;SDS011;7842;50.904;6.670;2022-09-12T08:41:48;15.63;;;13.53;;
15480;SDS011;7842;50.904;6.670;2022-09-12T08:47:27;16.27;;;12.97;;
15480;SDS011;7842;50.904;6.670;2022-09-12T08:50:09;16.05;;;13.02;;
15480;SDS011;7842;50.904;6.670;2022-09-12T08:55:24;12.85;;;10.57;;
15480;SDS011;7842;50.904;6.670;2022-09-12T08:57:57;11.85;;;10.52;;
15480;SDS011;7842;50.904;6.670;2022-09-12T09:12:02;10.70;;;9.20;;
15480;SDS011;7842;50.904;6.670;2022-09-12T09:14:42;10.65;;;9.45;;
15480;SDS011;7842;50.904;6.670;2022-09-12T09:17:25;10.63;;;9.27;;
15480;SDS011;7842;50.904;6.670;2022-09-12T09:22:46;10.43;;;8.82;;
15480;SDS011;7842;50.904;6.670;2022-09-12T09:25:23;9.63;;;8.38;;
15480;SDS011;7842;50.904;6.670;2022-09-12T09:30:42;10.95;;;9.50;;
15480;SDS011;7842;50.904;6.670;2022-09-12T09:33:09;9.77;;;8.63;;
15480;SDS011;7842;50.904;6.670;2022-09-12T09:35:46;10.00;;;8.97;;
15480;SDS011;7842;50.904;6.670;2022-09-12T09:41:16;8.50;;;7.55;;
15480;SDS011;7842;50.904;6.670;2022-09-12T09:43:50;9.55;;;8.10;;
15480;SDS011;7842;50.904;6.670;2022-09-12T09:46:16;8.25;;;7.45;;
15480;SDS011;7842;50.904;6.670;2022-09-12T09:48:43;8.80;;;7.05;;
15480;SDS011;7842;50.904;6.670;2022-09-12T09:51:12;8.52;;;6.75;;
15480;SDS011;7842;50.904;6.670;2022-09-12T09:53:47;7.53;;;6.72;;
15480;SDS011;7842;50.904;6.670;2022-09-12T09:56:27;8.75;;;7.32;;
15480;SDS011;7842;50.904;6.670;2022-09-12T09:59:14;8.32;;;7.25;;
15480;SDS011;7842;50.904;6.670;2022-09-12T10:01:49;7.97;;;7.18;;
15480;SDS011;7842;50.904;6.670;2022-09-12T10:04:20;7.43;;;6.72;;
15480;SDS011;7842;50.904;6.670;2022-09-12T10:06:49;8.55;;;6.75;;
15480;SDS011;7842;50.904;6.670;2022-09-12T10:09:21;7.82;;;6.68;;
15480;SDS011;7842;50.904;6.670;2022-09-12T10:12:00;7.97;;;7.17;;
15480;SDS011;7842;50.904;6.670;2022-09-12T10:14:59;7.30;;;6.60;;
15480;SDS011;7842;50.904;6.670;2022-09-12T10:19:54;8.48;;;6.53;;
15480;SDS011;7842;50.904;6.670;2022-09-12T10:22:20;7.45;;;6.20;;
15480;SDS011;7842;50.904;6.670;2022-09-12T10:24:52;7.50;;;6.07;;
15480;SDS011;7842;50.904;6.670;2022-09-12T10:27:32;6.53;;;5.43;;
15480;SDS011;7842;50.904;6.670;2022-09-12T10:32:33;5.13;;;4.60;;
15480;SDS011;7842;50.904;6.670;2022-09-12T10:35:06;4.60;;;4.20;;
15480;SDS011;7842;50.904;6.670;2022-09-12T10:37:41;4.32;;;3.92;;
15480;SDS011;7842;50.904;6.670;2022-09-12T10:40:21;4.13;;;3.72;;
15480;SDS011;7842;50.904;6.670;2022-09-12T10:42:53;4.38;;;3.97;;
15480;SDS011;7842;50.904;6.670;2022-09-12T10:45:22;5.00;;;4.50;;
15480;SDS011;7842;50.904;6.670;2022-09-12T10:47:50;4.00;;;3.70;;
15480;SDS011;7842;50.904;6.670;2022-09-12T10:50:18;4.43;;;4.00;;
15480;SDS011;7842;50.904;6.670;2022-09-12T10:52:46;4.55;;;4.15;;
15480;SDS011;7842;50.904;6.670;2022-09-12T10:55:14;5.23;;;4.77;;
15480;SDS011;7842;50.904;6.670;2022-09-12T10:57:50;5.18;;;4.68;;
15480;SDS011;7842;50.904;6.670;2022-09-12T11:00:36;5.20;;;4.70;;
15480;SDS011;7842;50.904;6.670;2022-09-12T11:03:19;4.70;;;4.20;;
15480;SDS011;7842;50.904;6.670;2022-09-12T11:05:52;4.38;;;3.97;;
15480;SDS011;7842;50.904;6.670;2022-09-12T11:11:19;5.17;;;4.10;;
15480;SDS011;7842;50.904;6.670;2022-09-12T11:19:23;4.55;;;4.15;;
15480;SDS011;7842;50.904;6.670;2022-09-12T11:27:22;7.05;;;5.60;;
15480;SDS011;7842;50.904;6.670;2022-09-12T11:32:35;6.18;;;5.57;;
15480;SDS011;7842;50.904;6.670;2022-09-12T11:37:43;6.28;;;5.47;;
15480;SDS011;7842;50.904;6.670;2022-09-12T11:42:44;4.83;;;4.23;;
15480;SDS011;7842;50.904;6.670;2022-09-12T11:45:14;4.70;;;4.30;;
15480;SDS011;7842;50.904;6.670;2022-09-12T11:47:42;4.90;;;4.32;;
15480;SDS011;7842;50.904;6.670;2022-09-12T11:50:23;5.20;;;4.70;;
15480;SDS011;7842;50.904;6.670;2022-09-12T11:52:51;5.07;;;4.57;;
15480;SDS011;7842;50.904;6.670;2022-09-12T11:55:21;5.00;;;4.50;;
15480;SDS011;7842;50.904;6.670;2022-09-12T11:57:51;4.55;;;4.15;;
15480;SDS011;7842;50.904;6.670;2022-09-12T12:00:19;4.93;;;4.50;;
15480;SDS011;7842;50.904;6.670;2022-09-12T12:05:28;5.15;;;4.65;;
15480;SDS011;7842;50.904;6.670;2022-09-12T12:07:56;4.70;;;4.30;;
15480;SDS011;7842;50.904;6.670;2022-09-12T12:13:15;5.10;;;4.60;;
15480;SDS011;7842;50.904;6.670;2022-09-12T12:15:52;5.22;;;4.57;;
15480;SDS011;7842;50.904;6.670;2022-09-12T12:18:24;4.20;;;3.80;;
15480;SDS011;7842;50.904;6.670;2022-09-12T12:20:52;3.60;;;3.30;;
15480;SDS011;7842;50.904;6.670;2022-09-12T12:25:52;4.10;;;3.70;;
15480;SDS011;7842;50.904;6.670;2022-09-12T12:31:20;3.80;;;3.38;;
15480;SDS011;7842;50.904;6.670;2022-09-12T12:36:30;3.40;;;3.10;;
15480;SDS011;7842;50.904;6.670;2022-09-12T12:41:56;3.30;;;3.00;;
15480;SDS011;7842;50.904;6.670;2022-09-12T12:47:31;3.53;;;2.80;;
15480;SDS011;7842;50.904;6.670;2022-09-12T12:50:11;3.13;;;2.83;;
15480;SDS011;7842;50.904;6.670;2022-09-12T12:53:00;4.18;;;2.90;;
15480;SDS011;7842;50.904;6.670;2022-09-12T12:58:02;3.70;;;3.25;;
15480;SDS011;7842;50.904;6.670;2022-09-12T13:05:39;3.90;;;3.60;;
15480;SDS011;7842;50.904;6.670;2022-09-12T13:08:27;3.70;;;3.30;;
15480;SDS011;7842;50.904;6.670;2022-09-12T13:11:05;3.70;;;3.37;;
15480;SDS011;7842;50.904;6.670;2022-09-12T13:16:04;3.80;;;3.50;;
15480;SDS011;7842;50.904;6.670;2022-09-12T13:18:52;3.30;;;3.08;;
15480;SDS011;7842;50.904;6.670;2022-09-12T13:21:18;3.60;;;3.25;;
15480;SDS011;7842;50.904;6.670;2022-09-12T13:24:30;4.57;;;3.50;;
15480;SDS011;7842;50.904;6.670;2022-09-12T13:26:32;3.97;;;3.58;;
15480;SDS011;7842;50.904;6.670;2022-09-12T13:29:09;3.95;;;3.55;;
15480;SDS011;7842;50.904;6.670;2022-09-12T13:31:35;4.18;;;3.78;;
15480;SDS011;7842;50.904;6.670;2022-09-12T13:34:03;3.85;;;3.53;;
15480;SDS011;7842;50.904;6.670;2022-09-12T13:43:57;4.40;;;3.30;;
15480;SDS011;7842;50.904;6.670;2022-09-12T13:46:27;3.60;;;3.20;;
15480;SDS011;7842;50.904;6.670;2022-09-12T13:48:55;4.05;;;3.65;;
15480;SDS011;7842;50.904;6.670;2022-09-12T13:51:23;4.77;;;3.40;;
15480;SDS011;7842;50.904;6.670;2022-09-12T13:53:50;3.35;;;3.05;;
15480;SDS011;7842;50.904;6.670;2022-09-12T13:56:17;4.15;;;3.75;;
15480;SDS011;7842;50.904;6.670;2022-09-12T14:01:40;3.30;;;3.00;;
15480;SDS011;7842;50.904;6.670;2022-09-12T14:06:56;2.90;;;2.70;;
15480;SDS011;7842;50.904;6.670;2022-09-12T14:09:30;4.40;;;2.90;;
15480;SDS011;7842;50.904;6.670;2022-09-12T14:12:00;3.38;;;2.97;;
15480;SDS011;7842;50.904;6.670;2022-09-12T14:14:31;3.72;;;2.92;;
15480;SDS011;7842;50.904;6.670;2022-09-12T14:16:58;3.30;;;3.00;;
15480;SDS011;7842;50.904;6.670;2022-09-12T14:19:24;3.58;;;3.25;;
15480;SDS011;7842;50.904;6.670;2022-09-12T14:21:51;3.88;;;3.40;;
15480;SDS011;7842;50.904;6.670;2022-09-12T14:24:18;3.60;;;3.30;;
15480;SDS011;7842;50.904;6.670;2022-09-12T14:26:47;4.10;;;3.70;;
15480;SDS011;7842;50.904;6.670;2022-09-12T14:29:14;4.03;;;3.63;;
15480;SDS011;7842;50.904;6.670;2022-09-12T14:31:41;4.05;;;3.60;;
15480;SDS011;7842;50.904;6.670;2022-09-12T14:34:11;4.50;;;3.60;;
15480;SDS011;7842;50.904;6.670;2022-09-12T14:41:46;3.63;;;2.60;;
15480;SDS011;7842;50.904;6.670;2022-09-12T14:44:16;2.70;;;2.50;;
15480;SDS011;7842;50.904;6.670;2022-09-12T14:46:43;3.07;;;2.77;;
15480;SDS011;7842;50.904;6.670;2022-09-12T14:49:17;3.05;;;2.75;;
15480;SDS011;7842;50.904;6.670;2022-09-12T14:56:54;4.38;;;3.97;;
15480;SDS011;7842;50.904;6.670;2022-09-12T15:01:49;3.80;;;3.47;;
15480;SDS011;7842;50.904;6.670;2022-09-12T15:04:36;3.83;;;3.53;;
15480;SDS011;7842;50.904;6.670;2022-09-12T15:07:12;4.38;;;3.80;;
15480;SDS011;7842;50.904;6.670;2022-09-12T15:09:38;4.35;;;3.95;;
15480;SDS011;7842;50.904;6.670;2022-09-12T15:12:04;5.20;;;3.92;;
15480;SDS011;7842;50.904;6.670;2022-09-12T15:14:30;4.03;;;3.63;;
15480;SDS011;7842;50.904;6.670;2022-09-12T15:16:56;4.30;;;3.90;;
15480;SDS011;7842;50.904;6.670;2022-09-12T15:19:22;4.55;;;4.07;;
15480;SDS011;7842;50.904;6.670;2022-09-12T15:21:48;4.28;;;3.70;;
15480;SDS011;7842;50.904;6.670;2022-09-12T15:24:14;4.00;;;3.63;;
15480;SDS011;7842;50.904;6.670;2022-09-12T15:26:40;4.00;;;3.60;;
15480;SDS011;7842;50.904;6.670;2022-09-12T15:29:06;4.03;;;3.47;;
15480;SDS011;7842;50.904;6.670;2022-09-12T15:31:32;4.20;;;3.58;;
15480;SDS011;7842;50.904;6.670;2022-09-12T15:33:59;4.50;;;3.73;;
15480;SDS011;7842;50.904;6.670;2022-09-12T15:36:25;4.50;;;3.67;;
15480;SDS011;7842;50.904;6.670;2022-09-12T15:38:52;4.43;;;3.72;;
15480;SDS011;7842;50.904;6.670;2022-09-12T15:41:20;3.67;;;3.38;;
15480;SDS011;7842;50.904;6.670;2022-09-12T15:43:46;3.42;;;3.05;;
15480;SDS011;7842;50.904;6.670;2022-09-12T15:46:13;3.70;;;3.40;;
15480;SDS011;7842;50.904;6.670;2022-09-12T15:48:39;3.50;;;3.20;;
15480;SDS011;7842;50.904;6.670;2022-09-12T15:51:10;3.70;;;3.13;;
15480;SDS011;7842;50.904;6.670;2022-09-12T15:53:36;3.28;;;2.97;;
15480;SDS011;7842;50.904;6.670;2022-09-12T15:56:03;3.40;;;3.10;;
15480;SDS011;7842;50.904;6.670;2022-09-12T15:58:29;3.50;;;3.20;;
15480;SDS011;7842;50.904;6.670;2022-09-12T16:00:55;3.58;;;3.20;;
15480;SDS011;7842;50.904;6.670;2022-09-12T16:03:22;3.88;;;3.40;;
15480;SDS011;7842;50.904;6.670;2022-09-12T16:05:49;3.85;;;3.33;;
15480;SDS011;7842;50.904;6.670;2022-09-12T16:08:15;3.60;;;3.30;;
15480;SDS011;7842;50.904;6.670;2022-09-12T16:10:41;3.95;;;3.55;;
15480;SDS011;7842;50.904;6.670;2022-09-12T16:13:08;4.68;;;3.40;;
15480;SDS011;7842;50.904;6.670;2022-09-12T16:15:34;4.20;;;3.80;;
15480;SDS011;7842;50.904;6.670;2022-09-12T16:18:01;4.25;;;3.85;;
15480;SDS011;7842;50.904;6.670;2022-09-12T16:20:27;4.03;;;3.65;;
15480;SDS011;7842;50.904;6.670;2022-09-12T16:22:53;4.07;;;3.78;;
15480;SDS011;7842;50.904;6.670;2022-09-12T16:25:19;4.50;;;4.10;;
15480;SDS011;7842;50.904;6.670;2022-09-12T16:27:45;4.50;;;4.10;;
15480;SDS011;7842;50.904;6.670;2022-09-12T16:30:11;5.57;;;3.83;;
15480;SDS011;7842;50.904;6.670;2022-09-12T16:32:37;4.23;;;3.83;;
15480;SDS011;7842;50.904;6.670;2022-09-12T16:35:04;5.40;;;4.20;;
15480;SDS011;7842;50.904;6.670;2022-09-12T16:37:30;4.47;;;4.07;;
15480;SDS011;7842;50.904;6.670;2022-09-12T16:39:58;5.47;;;3.80;;
15480;SDS011;7842;50.904;6.670;2022-09-12T16:42:24;4.32;;;3.70;;
15480;SDS011;7842;50.904;6.670;2022-09-12T16:44:50;4.85;;;3.95;;
15480;SDS011;7842;50.904;6.670;2022-09-12T16:47:16;4.40;;;4.00;;
15480;SDS011;7842;50.904;6.670;2022-09-12T16:49:42;4.40;;;3.88;;
15480;SDS011;7842;50.904;6.670;2022-09-12T16:52:08;4.32;;;3.72;;
15480;SDS011;7842;50.904;6.670;2022-09-12T16:54:36;4.10;;;3.70;;
15480;SDS011;7842;50.904;6.670;2022-09-12T16:57:02;3.85;;;3.50;;
15480;SDS011;7842;50.904;6.670;2022-09-12T16:59:29;3.83;;;3.40;;
15480;SDS011;7842;50.904;6.670;2022-09-12T17:01:55;4.10;;;3.70;;
15480;SDS011;7842;50.904;6.670;2022-09-12T17:04:21;4.72;;;3.55;;
15480;SDS011;7842;50.904;6.670;2022-09-12T17:06:47;4.93;;;3.45;;
15480;SDS011;7842;50.904;6.670;2022-09-12T17:09:13;3.92;;;3.63;;
15480;SDS011;7842;50.904;6.670;2022-09-12T17:11:43;3.58;;;3.17;;
15480;SDS011;7842;50.904;6.670;2022-09-12T17:14:09;4.32;;;3.50;;
15480;SDS011;7842;50.904;6.670;2022-09-12T17:16:44;3.67;;;3.33;;
15480;SDS011;7842;50.904;6.670;2022-09-12T17:19:12;3.40;;;3.20;;
15480;SDS011;7842;50.904;6.670;2022-09-12T17:21:39;4.32;;;3.15;;
15480;SDS011;7842;50.904;6.670;2022-09-12T17:24:05;4.00;;;3.22;;
15480;SDS011;7842;50.904;6.670;2022-09-12T17:26:31;4.32;;;3.25;;
15480;SDS011;7842;50.904;6.670;2022-09-12T17:28:57;3.80;;;3.00;;
15480;SDS011;7842;50.904;6.670;2022-09-12T17:31:23;3.65;;;3.25;;